Time;durP1;ratioP1;P1;durP2;ratioP2;P2;SDS_P1;SDS_P2;PMS_P1;PMS_P2;Temp;Humidity;BMP_temperature;BMP_pressure;BME280_temperature;BME280_humidity;BME280_pressure;Samples;Min_cycle;Max_cycle;Signal;HPM_P1;HPM_P2
2022/12/24 00:02:17;;;;;;;;;;;10.40;90.80;;;;;;5034450;28;20461;-77
2022/12/24 00:04:42;;;;;;;;;;;10.40;90.80;;;;;;5023488;28;19982;-75
2022/12/24 00:07:08;;;;;;;;;;;10.50;90.80;;;;;;5030021;28;19925;-77
2022/12/24 00:09:33;;;;;;;;;;;10.50;90.80;;;;;;5030786;28;19957;-77
2022/12/24 00:11:59;;;;;;;;;;;10.40;90.80;;;;;;5033266;28;20032;-77
2022/12/24 00:14:24;;;;;;;;;;;10.40;90.80;;;;;;5035550;28;19921;-77
2022/12/24 00:16:50;;;;;;;;;;;10.40;90.80;;;;;;5014244;28;20444;-77
2022/12/24 00:19:15;;;;;;;;;;;10.40;90.80;;;;;;5030865;28;19970;-77
2022/12/24 00:21:41;;;;;;;;;;;10.40;90.80;;;;;;5018313;28;20015;-78
2022/12/24 00:24:06;;;;;;;;;;;10.50;90.80;;;;;;5032781;28;20375;-76
2022/12/24 00:26:32;;;;;;;;;;;10.50;90.80;;;;;;5015684;28;19991;-77
2022/12/24 00:28:57;;;;;;;;;;;10.40;90.80;;;;;;5015640;28;19928;-77
2022/12/24 00:31:23;;;;;;;;;;;10.50;90.80;;;;;;5050124;28;19921;-76
2022/12/24 00:33:48;;;;;;;;;;;10.50;90.80;;;;;;5031737;28;20753;-77
2022/12/24 00:36:14;;;;;;;;;;;10.50;90.80;;;;;;5029927;28;19921;-75
2022/12/24 00:38:39;;;;;;;;;;;10.50;90.80;;;;;;5011373;28;19927;-77
2022/12/24 00:41:05;;;;;;;;;;;10.50;90.80;;;;;;5032646;28;19968;-78
2022/12/24 00:43:31;;;;;;;;;;;10.50;90.80;;;;;;5012812;28;19921;-77
2022/12/24 00:45:56;;;;;;;;;;;10.50;90.80;;;;;;5032887;28;20430;-76
2022/12/24 00:48:22;;;;;;;;;;;10.50;90.70;;;;;;5034037;28;20425;-77
2022/12/24 00:50:48;;;;;;;;;;;10.50;90.80;;;;;;5030161;28;19925;-77
2022/12/24 00:53:13;;;;;;;;;;;10.50;90.70;;;;;;5035339;28;20028;-77
2022/12/24 00:55:39;;;;;;;;;;;10.50;90.70;;;;;;5033047;28;19920;-77
2022/12/24 00:58:04;;;;;;;;;;;10.40;90.70;;;;;;5035067;28;19921;-77
2022/12/24 01:00:30;;;;;;;;;;;10.40;90.70;;;;;;5036971;28;20704;-78
2022/12/24 01:02:55;;;;;;;;;;;10.40;90.70;;;;;;5034128;28;20429;-77
2022/12/24 01:05:21;;;;;;;;;;;10.40;90.70;;;;;;5036204;28;19952;-77
2022/12/24 01:07:47;;;;;;;;;;;10.30;90.70;;;;;;5036282;28;21467;-75
2022/12/24 01:10:13;;;;;;;;;;;10.30;90.80;;;;;;5032299;28;20701;-77
2022/12/24 01:12:39;;;;;;;;;;;10.30;90.70;;;;;;5033978;28;19986;-77
2022/12/24 01:15:04;;;;;;;;;;;10.30;90.70;;;;;;5031918;28;20646;-77
2022/12/24 01:17:30;;;;;;;;;;;10.30;90.70;;;;;;5019387;28;19948;-77
2022/12/24 01:19:56;;;;;;;;;;;10.20;90.70;;;;;;5034995;28;19920;-77
2022/12/24 01:22:21;;;;;;;;;;;10.20;90.70;;;;;;5034049;28;19928;-77
2022/12/24 01:24:47;;;;;;;;;;;10.20;90.70;;;;;;5035466;28;20001;-77
2022/12/24 01:27:12;;;;;;;;;;;10.20;90.70;;;;;;5032664;28;19925;-77
2022/12/24 01:29:38;;;;;;;;;;;10.20;90.80;;;;;;5036118;28;19974;-77
2022/12/24 01:32:03;;;;;;;;;;;10.20;90.80;;;;;;5016894;28;20001;-77
2022/12/24 01:34:29;;;;;;;;;;;10.20;90.80;;;;;;5036322;28;19925;-78
2022/12/24 01:36:54;;;;;;;;;;;10.10;90.70;;;;;;5034974;28;20686;-76
2022/12/24 01:39:19;;;;;;;;;;;10.10;90.70;;;;;;5012719;28;20318;-76
2022/12/24 01:44:32;;;;;;;;;;;10.20;90.80;;;;;;5035179;28;19932;-77
2022/12/24 01:47:02;;;;;;;;;;;10.10;90.70;;;;;;5052890;28;19920;-77
2022/12/24 01:49:27;;;;;;;;;;;10.10;90.70;;;;;;5034258;28;19917;-76
2022/12/24 01:51:54;;;;;;;;;;;10.10;90.70;;;;;;5037153;28;20306;-77
2022/12/24 01:54:21;;;;;;;;;;;10.10;90.70;;;;;;5047898;28;19973;-77
2022/12/24 01:56:49;;;;;;;;;;;10.10;90.80;;;;;;5048228;28;19921;-77
2022/12/24 01:59:15;;;;;;;;;;;10.10;90.70;;;;;;5031981;28;20785;-77
2022/12/24 02:01:41;;;;;;;;;;;10.10;90.70;;;;;;5034395;28;20004;-77
2022/12/24 02:04:16;;;;;;;;;;;10.10;90.80;;;;;;5035859;28;20574;-77
2022/12/24 02:06:42;;;;;;;;;;;10.10;90.70;;;;;;5034557;28;20585;-75
2022/12/24 02:09:07;;;;;;;;;;;10.10;90.70;;;;;;5034491;28;19928;-77
2022/12/24 02:11:33;;;;;;;;;;;10.10;90.70;;;;;;5035196;28;19940;-77
2022/12/24 02:13:59;;;;;;;;;;;10.10;90.70;;;;;;5017769;28;20011;-77
2022/12/24 02:16:24;;;;;;;;;;;10.10;90.70;;;;;;5035180;28;19921;-76
2022/12/24 02:18:55;;;;;;;;;;;10.10;90.60;;;;;;5048743;28;19928;-77
2022/12/24 02:21:40;;;;;;;;;;;10.20;90.70;;;;;;5048886;28;20499;-77
2022/12/24 02:24:21;;;;;;;;;;;10.20;90.60;;;;;;5041440;28;19925;-77
2022/12/24 02:27:00;;;;;;;;;;;10.10;90.60;;;;;;5032385;28;19971;-77
2022/12/24 02:29:40;;;;;;;;;;;10.20;90.60;;;;;;5033434;28;19928;-77
2022/12/24 02:32:10;;;;;;;;;;;10.10;91.00;;;;;;5017318;28;20674;-77
2022/12/24 02:34:37;;;;;;;;;;;10.10;90.60;;;;;;5010574;28;19928;-77
2022/12/24 02:37:04;;;;;;;;;;;10.10;90.60;;;;;;5033136;28;19925;-75
2022/12/24 02:39:32;;;;;;;;;;;10.10;90.60;;;;;;5016747;28;20399;-77
2022/12/24 02:42:07;;;;;;;;;;;10.00;90.60;;;;;;5033295;28;19986;-75
2022/12/24 02:44:46;;;;;;;;;;;10.00;90.60;;;;;;5015881;28;19917;-76
2022/12/24 02:47:11;;;;;;;;;;;10.00;90.60;;;;;;5032070;28;19924;-77
2022/12/24 02:49:37;;;;;;;;;;;10.00;90.60;;;;;;5033698;28;19928;-77
2022/12/24 02:52:02;;;;;;;;;;;9.90;90.60;;;;;;5015973;28;19925;-77
2022/12/24 02:54:28;;;;;;;;;;;9.90;90.60;;;;;;5046290;28;20488;-75
2022/12/24 02:57:12;;;;;;;;;;;9.90;90.70;;;;;;5035698;28;20029;-76
2022/12/24 02:59:50;;;;;;;;;;;9.90;90.60;;;;;;5047182;28;19932;-78
2022/12/24 03:02:35;;;;;;;;;;;9.90;90.60;;;;;;5023005;28;20015;-78
2022/12/24 03:05:09;;;;;;;;;;;9.90;90.60;;;;;;5047986;28;19928;-77
2022/12/24 03:07:42;;;;;;;;;;;9.90;90.60;;;;;;5034037;28;20415;-77
2022/12/24 03:10:28;;;;;;;;;;;9.90;90.60;;;;;;5032280;28;20582;-77
2022/12/24 03:12:54;;;;;;;;;;;9.90;90.60;;;;;;5039113;28;19929;-76
2022/12/24 03:15:21;;;;;;;;;;;9.90;90.60;;;;;;5015062;28;19921;-77
2022/12/24 03:17:46;;;;;;;;;;;9.90;90.60;;;;;;5033259;28;19932;-77
2022/12/24 03:20:12;;;;;;;;;;;9.90;90.60;;;;;;5033888;28;20659;-76
2022/12/24 03:22:37;;;;;;;;;;;9.90;90.60;;;;;;5034817;28;19927;-77
2022/12/24 03:25:03;;;;;;;;;;;9.90;90.60;;;;;;5034578;28;19967;-77
2022/12/24 03:27:28;;;;;;;;;;;9.90;90.60;;;;;;5031825;28;19948;-77
2022/12/24 03:29:54;;;;;;;;;;;9.90;90.60;;;;;;5035138;28;19956;-77
2022/12/24 03:32:29;;;;;;;;;;;9.90;90.60;;;;;;5046713;28;19937;-77
2022/12/24 03:34:54;;;;;;;;;;;9.90;90.60;;;;;;5028454;28;19958;-77
2022/12/24 03:37:20;;;;;;;;;;;9.90;90.60;;;;;;5017322;28;20164;-77
2022/12/24 03:39:45;;;;;;;;;;;10.00;90.60;;;;;;5027745;28;19964;-77
2022/12/24 03:42:11;;;;;;;;;;;10.00;90.60;;;;;;5029824;28;19927;-77
2022/12/24 03:44:36;;;;;;;;;;;10.00;90.60;;;;;;5030579;28;20014;-77
2022/12/24 03:47:02;;;;;;;;;;;9.90;90.50;;;;;;5016657;28;20552;-75
2022/12/24 03:49:27;;;;;;;;;;;9.90;90.50;;;;;;5014778;28;19920;-77
2022/12/24 03:51:52;;;;;;;;;;;9.90;90.60;;;;;;5032623;28;19929;-77
2022/12/24 03:54:18;;;;;;;;;;;9.90;90.50;;;;;;5032247;28;19951;-77
2022/12/24 03:56:43;;;;;;;;;;;9.90;90.50;;;;;;5017343;28;19928;-77
2022/12/24 03:59:09;;;;;;;;;;;9.90;90.60;;;;;;5017048;28;20288;-76
2022/12/24 04:01:34;;;;;;;;;;;9.90;90.50;;;;;;5034045;28;19939;-77
2022/12/24 04:04:00;;;;;;;;;;;10.00;90.60;;;;;;5034207;28;19963;-77
2022/12/24 04:06:25;;;;;;;;;;;10.00;90.50;;;;;;5031575;28;19921;-77
2022/12/24 04:08:51;;;;;;;;;;;9.90;90.50;;;;;;5031094;28;19920;-77
2022/12/24 04:11:16;;;;;;;;;;;10.00;90.50;;;;;;5014503;28;19931;-76
2022/12/24 04:13:41;;;;;;;;;;;10.00;90.50;;;;;;5032042;28;20014;-76
2022/12/24 04:16:08;;;;;;;;;;;10.00;90.50;;;;;;5033841;28;19924;-77
2022/12/24 04:18:34;;;;;;;;;;;10.00;90.50;;;;;;5029384;28;19929;-76
2022/12/24 04:20:59;;;;;;;;;;;10.00;90.50;;;;;;5032267;28;19928;-77
2022/12/24 04:23:25;;;;;;;;;;;10.00;90.50;;;;;;5035478;28;19921;-77
2022/12/24 04:25:50;;;;;;;;;;;10.00;90.50;;;;;;5036130;28;19936;-77
2022/12/24 04:28:16;;;;;;;;;;;10.00;90.50;;;;;;5035300;28;19947;-77
2022/12/24 04:30:41;;;;;;;;;;;9.90;90.50;;;;;;5038765;28;20415;-77
2022/12/24 04:33:07;;;;;;;;;;;9.90;90.40;;;;;;5021322;28;19924;-78
2022/12/24 04:35:32;;;;;;;;;;;9.90;90.40;;;;;;5048217;28;19971;-77
2022/12/24 04:37:58;;;;;;;;;;;9.90;90.40;;;;;;5037565;28;19921;-77
2022/12/24 04:40:23;;;;;;;;;;;9.90;90.50;;;;;;5018511;28;20608;-77
2022/12/24 04:42:49;;;;;;;;;;;10.00;90.80;;;;;;5034432;28;19928;-77
2022/12/24 04:45:15;;;;;;;;;;;10.00;90.50;;;;;;5035613;28;20288;-77
2022/12/24 04:47:40;;;;;;;;;;;9.90;90.40;;;;;;5037878;28;19928;-77
2022/12/24 04:50:06;;;;;;;;;;;10.00;90.40;;;;;;5035773;28;20697;-77
2022/12/24 04:52:32;;;;;;;;;;;10.00;90.40;;;;;;5035051;28;19925;-77
2022/12/24 04:54:57;;;;;;;;;;;10.00;90.40;;;;;;5017956;28;19920;-77
2022/12/24 04:57:23;;;;;;;;;;;9.90;90.40;;;;;;5015897;28;19951;-77
2022/12/24 04:59:48;;;;;;;;;;;10.00;90.40;;;;;;5034110;28;20342;-77
2022/12/24 05:02:14;;;;;;;;;;;10.00;90.40;;;;;;5036518;28;19970;-77
2022/12/24 05:04:39;;;;;;;;;;;10.00;90.40;;;;;;5020193;28;19960;-77
2022/12/24 05:07:05;;;;;;;;;;;10.00;90.40;;;;;;5035923;28;19921;-77
2022/12/24 05:09:30;;;;;;;;;;;10.00;90.40;;;;;;5032945;28;19929;-77
2022/12/24 05:11:56;;;;;;;;;;;10.00;90.40;;;;;;5036348;28;19965;-77
2022/12/24 05:14:21;;;;;;;;;;;10.00;90.40;;;;;;5035455;28;20489;-76
2022/12/24 05:16:46;;;;;;;;;;;10.00;90.40;;;;;;5035570;28;20568;-78
2022/12/24 05:19:12;;;;;;;;;;;10.00;90.40;;;;;;5035322;28;20035;-76
2022/12/24 05:21:37;;;;;;;;;;;10.00;90.40;;;;;;5036656;28;19927;-77
2022/12/24 05:26:47;;;;;;;;;;;10.00;90.40;;;;;;5034325;28;19948;-77
2022/12/24 05:29:13;;;;;;;;;;;10.00;90.40;;;;;;5035160;28;19925;-76
2022/12/24 05:31:39;;;;;;;;;;;10.00;90.40;;;;;;5035172;28;19928;-77
2022/12/24 05:34:04;;;;;;;;;;;10.00;90.40;;;;;;5035679;28;19989;-78
2022/12/24 05:36:30;;;;;;;;;;;10.00;90.40;;;;;;5048779;28;19921;-78
2022/12/24 05:38:55;;;;;;;;;;;10.00;90.40;;;;;;5034140;28;19935;-78
2022/12/24 05:41:21;;;;;;;;;;;10.00;90.40;;;;;;5032814;28;19921;-77
2022/12/24 05:43:46;;;;;;;;;;;10.00;90.40;;;;;;5034410;28;19925;-76
2022/12/24 05:46:12;;;;;;;;;;;9.90;90.60;;;;;;5019414;28;20540;-78
2022/12/24 05:48:38;;;;;;;;;;;10.00;90.40;;;;;;5034965;28;19927;-77
2022/12/24 05:51:05;;;;;;;;;;;9.90;90.40;;;;;;5035510;28;20313;-77
2022/12/24 05:53:30;;;;;;;;;;;10.00;90.40;;;;;;5034724;28;20007;-77
2022/12/24 05:56:01;;;;;;;;;;;9.90;90.40;;;;;;5036105;28;20354;-77
2022/12/24 05:58:26;;;;;;;;;;;9.90;90.40;;;;;;5048602;28;19950;-77
2022/12/24 06:00:53;;;;;;;;;;;9.90;90.40;;;;;;5035549;28;20379;-77
2022/12/24 06:03:18;;;;;;;;;;;9.90;90.40;;;;;;5045662;28;19927;-77
2022/12/24 06:05:44;;;;;;;;;;;9.90;90.40;;;;;;5031468;28;19921;-77
2022/12/24 06:08:09;;;;;;;;;;;9.90;90.40;;;;;;5036762;28;19951;-77
2022/12/24 06:10:34;;;;;;;;;;;9.90;90.40;;;;;;5035517;28;19955;-77
2022/12/24 06:13:00;;;;;;;;;;;9.90;90.40;;;;;;5042406;28;19924;-77
2022/12/24 06:15:25;;;;;;;;;;;9.90;90.40;;;;;;5040784;28;19920;-77
2022/12/24 06:17:51;;;;;;;;;;;9.90;90.40;;;;;;5019064;28;20025;-78
2022/12/24 06:20:16;;;;;;;;;;;9.90;90.40;;;;;;5018172;28;19921;-78
2022/12/24 06:22:42;;;;;;;;;;;9.90;90.40;;;;;;5048615;28;19925;-77
2022/12/24 06:25:07;;;;;;;;;;;9.90;90.40;;;;;;5034467;28;20691;-78
2022/12/24 06:27:33;;;;;;;;;;;9.90;90.40;;;;;;5041128;28;19921;-77
2022/12/24 06:29:58;;;;;;;;;;;10.00;90.40;;;;;;5035817;28;19964;-78
2022/12/24 06:32:24;;;;;;;;;;;10.00;90.40;;;;;;5033972;28;19929;-77
2022/12/24 06:34:49;;;;;;;;;;;9.90;90.40;;;;;;5050203;28;19920;-73
2022/12/24 06:37:18;;;;;;;;;;;10.00;90.40;;;;;;5033618;28;19960;-77
2022/12/24 06:39:46;;;;;;;;;;;10.00;90.40;;;;;;5020264;28;19982;-77
2022/12/24 06:42:14;;;;;;;;;;;10.00;90.40;;;;;;5034187;28;19921;-78
2022/12/24 06:44:40;;;;;;;;;;;10.00;90.40;;;;;;5031422;28;20598;-77
2022/12/24 06:47:05;;;;;;;;;;;9.90;90.40;;;;;;5032659;28;19921;-77
2022/12/24 06:49:30;;;;;;;;;;;9.90;90.40;;;;;;5030431;28;20445;-78
2022/12/24 06:51:56;;;;;;;;;;;9.90;90.40;;;;;;5017372;28;20639;-76
2022/12/24 06:54:22;;;;;;;;;;;9.90;90.40;;;;;;5035270;28;19920;-76
2022/12/24 06:56:47;;;;;;;;;;;9.90;90.70;;;;;;5032723;28;19933;-77
2022/12/24 06:59:13;;;;;;;;;;;9.90;90.40;;;;;;5031621;28;19925;-77
2022/12/24 07:01:38;;;;;;;;;;;9.80;90.40;;;;;;5031299;28;20307;-75
2022/12/24 07:04:04;;;;;;;;;;;9.90;90.40;;;;;;5029007;28;19921;-77
2022/12/24 07:06:29;;;;;;;;;;;9.90;90.40;;;;;;5031247;28;20035;-77
2022/12/24 07:08:55;;;;;;;;;;;9.90;90.40;;;;;;5017204;28;19932;-76
2022/12/24 07:11:20;;;;;;;;;;;9.90;90.40;;;;;;5031128;28;19929;-77
2022/12/24 07:13:46;;;;;;;;;;;9.90;90.40;;;;;;5030991;28;19951;-78
2022/12/24 07:16:11;;;;;;;;;;;9.90;90.40;;;;;;5034408;28;20306;-77
2022/12/24 07:18:37;;;;;;;;;;;9.90;90.40;;;;;;5031164;28;19952;-76
2022/12/24 07:21:04;;;;;;;;;;;9.90;90.40;;;;;;5031995;28;20382;-78
2022/12/24 07:23:30;;;;;;;;;;;10.00;90.40;;;;;;5027845;28;19956;-76
2022/12/24 07:26:02;;;;;;;;;;;9.90;90.40;;;;;;5031506;28;20126;-77
2022/12/24 07:28:27;;;;;;;;;;;10.00;90.40;;;;;;5030303;28;19920;-76
2022/12/24 07:30:53;;;;;;;;;;;10.00;90.40;;;;;;5033215;28;19932;-76
2022/12/24 07:33:18;;;;;;;;;;;10.00;90.40;;;;;;5032693;28;19932;-77
2022/12/24 07:35:44;;;;;;;;;;;10.00;90.40;;;;;;5031321;28;19928;-77
2022/12/24 07:38:09;;;;;;;;;;;10.00;90.40;;;;;;5034434;28;20319;-76
2022/12/24 07:40:35;;;;;;;;;;;10.00;90.30;;;;;;5021760;28;19971;-77
2022/12/24 07:43:00;;;;;;;;;;;10.00;90.30;;;;;;5032509;28;19925;-77
2022/12/24 07:45:26;;;;;;;;;;;10.00;90.30;;;;;;5030601;28;20637;-76
2022/12/24 07:47:51;;;;;;;;;;;10.10;90.40;;;;;;5032979;28;19956;-76
2022/12/24 07:50:17;;;;;;;;;;;10.00;90.30;;;;;;5046996;28;19951;-77
2022/12/24 07:52:42;;;;;;;;;;;10.10;90.30;;;;;;5033316;28;19921;-72
2022/12/24 07:55:08;;;;;;;;;;;10.10;90.10;;;;;;5034300;28;20379;-72
2022/12/24 07:57:33;;;;;;;;;;;10.10;90.30;;;;;;5025349;28;20071;-72
2022/12/24 07:59:59;;;;;;;;;;;10.10;90.40;;;;;;5025608;28;20326;-72
2022/12/24 08:02:24;;;;;;;;;;;10.10;90.30;;;;;;5031049;28;19921;-72
2022/12/24 08:04:49;;;;;;;;;;;10.10;90.30;;;;;;5031539;28;19921;-73
2022/12/24 08:07:15;;;;;;;;;;;10.20;90.40;;;;;;5047334;28;19960;-72
2022/12/24 08:09:40;;;;;;;;;;;10.20;90.40;;;;;;5011677;28;19947;-70
2022/12/24 08:12:06;;;;;;;;;;;10.20;90.30;;;;;;5031748;28;19929;-73
2022/12/24 08:14:31;;;;;;;;;;;10.20;90.30;;;;;;5013993;28;20395;-72
2022/12/24 08:16:57;;;;;;;;;;;10.20;90.30;;;;;;5034133;28;19921;-72
2022/12/24 08:19:22;;;;;;;;;;;10.20;90.30;;;;;;5028932;28;20302;-70
2022/12/24 08:21:48;;;;;;;;;;;10.20;90.30;;;;;;5010297;28;19924;-71
2022/12/24 08:24:13;;;;;;;;;;;10.20;90.30;;;;;;5026029;28;19929;-73
2022/12/24 08:26:39;;;;;;;;;;;10.30;90.30;;;;;;5024397;28;19920;-72
2022/12/24 08:29:04;;;;;;;;;;;10.30;90.30;;;;;;5027267;28;20537;-72
2022/12/24 08:31:35;;;;;;;;;;;10.30;90.30;;;;;;5025955;28;19928;-72
2022/12/24 08:34:03;;;;;;;;;;;10.40;90.30;;;;;;5027031;28;20546;-73
2022/12/24 08:36:29;;;;;;;;;;;10.30;90.30;;;;;;5029886;28;20031;-73
2022/12/24 08:38:54;;;;;;;;;;;10.40;90.30;;;;;;5029085;28;20012;-71
2022/12/24 08:41:20;;;;;;;;;;;10.40;90.30;;;;;;5013106;28;19921;-72
2022/12/24 08:43:45;;;;;;;;;;;10.40;90.30;;;;;;5012020;28;20540;-73
2022/12/24 08:46:11;;;;;;;;;;;10.40;90.30;;;;;;5011907;28;19921;-71
2022/12/24 08:48:36;;;;;;;;;;;10.50;90.30;;;;;;5028732;28;19927;-73
2022/12/24 08:51:05;;;;;;;;;;;10.50;90.30;;;;;;5032843;28;20000;-73
2022/12/24 08:53:31;;;;;;;;;;;10.50;90.20;;;;;;5027979;28;19931;-73
2022/12/24 08:56:02;;;;;;;;;;;10.60;90.30;;;;;;5031129;28;19921;-77
2022/12/24 08:58:28;;;;;;;;;;;10.60;90.30;;;;;;5030058;28;19921;-76
2022/12/24 09:00:54;;;;;;;;;;;10.60;90.20;;;;;;5030817;28;19921;-75
2022/12/24 09:03:19;;;;;;;;;;;10.60;90.20;;;;;;5031945;28;19924;-76
2022/12/24 09:05:44;;;;;;;;;;;10.70;90.20;;;;;;5030781;28;19920;-77
2022/12/24 09:08:10;;;;;;;;;;;10.70;90.20;;;;;;5030598;28;19982;-76
2022/12/24 09:10:35;;;;;;;;;;;10.80;90.20;;;;;;5035598;28;20350;-77
2022/12/24 09:13:01;;;;;;;;;;;10.90;90.10;;;;;;5035050;28;19925;-75
2022/12/24 09:15:26;;;;;;;;;;;10.80;90.10;;;;;;5035305;28;19921;-76
2022/12/24 09:17:52;;;;;;;;;;;10.80;90.10;;;;;;5034372;28;19917;-74
2022/12/24 09:20:17;;;;;;;;;;;10.90;90.10;;;;;;5038004;28;19924;-73
2022/12/24 09:22:43;;;;;;;;;;;10.90;90.10;;;;;;5035965;28;19921;-72
2022/12/24 09:25:09;;;;;;;;;;;10.90;90.10;;;;;;5036173;28;19925;-73
2022/12/24 09:27:35;;;;;;;;;;;10.90;90.10;;;;;;5031579;28;19925;-71
2022/12/24 09:30:00;;;;;;;;;;;10.90;90.10;;;;;;5035915;28;20342;-74
2022/12/24 09:32:26;;;;;;;;;;;10.90;90.10;;;;;;5049232;28;19924;-71
2022/12/24 09:34:51;;;;;;;;;;;10.90;90.10;;;;;;5036240;28;20310;-73
2022/12/24 09:37:17;;;;;;;;;;;11.00;90.10;;;;;;5033565;28;19929;-73
2022/12/24 09:39:42;;;;;;;;;;;11.00;90.10;;;;;;5037091;28;20642;-73
2022/12/24 09:42:26;;;;;;;;;;;11.10;90.10;;;;;;5035012;28;20486;-73
2022/12/24 09:44:54;;;;;;;;;;;11.00;90.10;;;;;;5047287;28;19923;-74
2022/12/24 09:47:28;;;;;;;;;;;11.10;90.00;;;;;;5031180;28;20634;-70
2022/12/24 09:49:54;;;;;;;;;;;11.10;90.00;;;;;;5035754;28;20015;-70
2022/12/24 09:52:28;;;;;;;;;;;11.20;90.10;;;;;;5034691;28;19932;-72
2022/12/24 09:55:07;;;;;;;;;;;11.20;90.00;;;;;;5020694;28;20058;-72
2022/12/24 09:57:34;;;;;;;;;;;11.30;90.10;;;;;;5029452;28;20271;-72
2022/12/24 09:59:59;;;;;;;;;;;11.40;90.00;;;;;;5032959;28;19951;-71
2022/12/24 10:02:25;;;;;;;;;;;11.40;90.00;;;;;;5032378;28;20338;-70
2022/12/24 10:04:50;;;;;;;;;;;11.50;90.00;;;;;;5033197;28;19924;-73
2022/12/24 10:07:16;;;;;;;;;;;11.60;90.00;;;;;;5030344;28;19959;-71
2022/12/24 10:09:51;;;;;;;;;;;11.60;89.80;;;;;;5033322;28;20481;-73
2022/12/24 10:12:31;;;;;;;;;;;11.60;89.70;;;;;;5035334;28;20334;-72
2022/12/24 10:14:56;;;;;;;;;;;11.60;90.00;;;;;;5033548;28;19924;-73
2022/12/24 10:17:44;;;;;;;;;;;11.60;89.60;;;;;;5035146;28;19983;-72
2022/12/24 10:20:20;;;;;;;;;;;11.60;89.60;;;;;;5034534;28;19925;-73
2022/12/24 10:23:04;;;;;;;;;;;11.60;89.60;;;;;;5048932;28;19927;-74
2022/12/24 10:25:32;;;;;;;;;;;11.60;89.70;;;;;;5032965;28;20404;-71
2022/12/24 10:27:59;;;;;;;;;;;11.50;89.70;;;;;;5033656;28;19925;-78
2022/12/24 10:30:24;;;;;;;;;;;11.50;89.70;;;;;;5035761;28;20729;-78
2022/12/24 10:32:50;;;;;;;;;;;11.50;89.80;;;;;;5017531;28;19978;-78
2022/12/24 10:35:16;;;;;;;;;;;11.50;89.90;;;;;;5050912;28;19927;-78
2022/12/24 10:37:48;;;;;;;;;;;11.50;89.90;;;;;;5035297;28;19921;-77
2022/12/24 10:40:23;;;;;;;;;;;11.50;89.90;;;;;;5035868;28;19925;-79
2022/12/24 10:42:48;;;;;;;;;;;11.50;89.90;;;;;;5033617;28;19924;-79
2022/12/24 10:45:15;;;;;;;;;;;11.40;89.90;;;;;;5020795;28;20651;-77
2022/12/24 10:47:41;;;;;;;;;;;11.40;89.80;;;;;;5028574;28;20573;-78
2022/12/24 10:50:12;;;;;;;;;;;11.50;89.90;;;;;;5019899;28;20028;-78
2022/12/24 10:52:38;;;;;;;;;;;11.50;89.90;;;;;;5047042;28;20026;-77
2022/12/24 10:55:16;;;;;;;;;;;11.50;89.90;;;;;;5035321;28;19943;-78
2022/12/24 10:57:41;;;;;;;;;;;11.50;89.80;;;;;;5034030;28;20062;-78
2022/12/24 11:00:17;;;;;;;;;;;11.50;89.80;;;;;;5048994;28;20016;-78
2022/12/24 11:02:42;;;;;;;;;;;11.50;89.80;;;;;;5047693;28;19921;-79
2022/12/24 11:05:26;;;;;;;;;;;11.50;89.70;;;;;;5026810;28;19928;-77
2022/12/24 11:08:05;;;;;;;;;;;11.50;89.70;;;;;;5030234;28;20161;-79
2022/12/24 11:10:30;;;;;;;;;;;11.40;89.70;;;;;;5047144;28;19978;-78
2022/12/24 11:12:56;;;;;;;;;;;11.40;90.10;;;;;;5048612;28;19959;-78
2022/12/24 11:15:22;;;;;;;;;;;11.40;89.80;;;;;;5035275;28;19921;-78
2022/12/24 11:18:05;;;;;;;;;;;11.40;89.80;;;;;;5018671;28;19925;-79
2022/12/24 11:20:33;;;;;;;;;;;11.40;89.90;;;;;;5018265;28;20685;-78
2022/12/24 11:22:59;;;;;;;;;;;11.40;89.90;;;;;;5046230;28;19959;-78
2022/12/24 11:25:27;;;;;;;;;;;11.40;89.90;;;;;;5034826;28;19983;-78
2022/12/24 11:27:53;;;;;;;;;;;11.40;89.80;;;;;;5015715;28;20012;-72
2022/12/24 11:30:21;;;;;;;;;;;11.50;89.90;;;;;;5034237;28;19920;-78
2022/12/24 11:32:47;;;;;;;;;;;11.50;89.90;;;;;;5050629;28;19925;-78
2022/12/24 11:35:22;;;;;;;;;;;11.50;89.90;;;;;;5033780;28;19920;-78
2022/12/24 11:37:54;;;;;;;;;;;11.50;89.90;;;;;;5042824;28;19975;-78
2022/12/24 11:40:20;;;;;;;;;;;11.50;89.90;;;;;;5031868;28;19975;-77
2022/12/24 11:42:46;;;;;;;;;;;11.50;89.80;;;;;;5032684;28;19935;-78
2022/12/24 11:45:20;;;;;;;;;;;11.60;89.80;;;;;;5046609;28;20622;-77
2022/12/24 11:47:45;;;;;;;;;;;11.60;89.80;;;;;;5024598;28;19920;-78
2022/12/24 11:50:20;;;;;;;;;;;11.70;89.90;;;;;;5026028;28;19924;-77
2022/12/24 11:52:46;;;;;;;;;;;11.70;89.80;;;;;;5031781;28;19970;-78
2022/12/24 11:55:45;;;;;;;;;;;11.70;89.80;;;;;;5017098;28;19924;-79
2022/12/24 11:58:22;;;;;;;;;;;11.70;89.80;;;;;;5007044;28;20299;-80
2022/12/24 12:00:48;;;;;;;;;;;11.80;89.70;;;;;;5041122;28;19932;-79
2022/12/24 12:03:24;;;;;;;;;;;11.80;89.80;;;;;;5034116;28;19924;-77
2022/12/24 12:05:50;;;;;;;;;;;11.80;89.80;;;;;;5023946;28;20015;-79
2022/12/24 12:08:16;;;;;;;;;;;11.80;89.60;;;;;;5032471;28;19927;-78
2022/12/24 12:10:42;;;;;;;;;;;11.90;89.60;;;;;;5046787;28;19921;-77
2022/12/24 12:13:10;;;;;;;;;;;11.90;89.50;;;;;;5034765;28;19978;-79
2022/12/24 12:15:39;;;;;;;;;;;11.90;89.50;;;;;;5034039;28;19917;-77
2022/12/24 12:18:07;;;;;;;;;;;11.90;89.60;;;;;;5035997;28;19959;-77
2022/12/24 12:20:52;;;;;;;;;;;11.90;90.10;;;;;;5050948;28;20362;-78
2022/12/24 12:23:18;;;;;;;;;;;12.00;89.50;;;;;;5034567;28;20425;-78
2022/12/24 12:25:51;;;;;;;;;;;12.00;89.50;;;;;;5032980;28;19928;-78
2022/12/24 12:28:22;;;;;;;;;;;12.00;89.40;;;;;;5034218;28;20593;-77
2022/12/24 12:31:06;;;;;;;;;;;12.00;89.40;;;;;;5038756;28;19925;-78
2022/12/24 12:33:34;;;;;;;;;;;12.00;89.50;;;;;;5031692;28;19948;-78
2022/12/24 12:35:59;;;;;;;;;;;12.00;89.40;;;;;;5014510;28;20783;-78
2022/12/24 12:38:27;;;;;;;;;;;12.10;90.10;;;;;;5029631;28;19921;-77
2022/12/24 12:41:12;;;;;;;;;;;12.10;89.40;;;;;;5015160;28;20310;-77
2022/12/24 12:43:37;;;;;;;;;;;12.00;89.30;;;;;;5044601;28;19932;-77
2022/12/24 12:46:10;;;;;;;;;;;12.10;89.40;;;;;;5035919;28;20362;-78
2022/12/24 12:48:46;;;;;;;;;;;12.10;89.40;;;;;;5032406;28;20353;-78
2022/12/24 12:51:21;;;;;;;;;;;12.10;89.30;;;;;;5033063;28;20578;-77
2022/12/24 12:53:59;;;;;;;;;;;12.10;89.30;;;;;;5017857;28;19928;-78
2022/12/24 12:56:31;;;;;;;;;;;12.10;89.30;;;;;;5037170;28;19932;-79
2022/12/24 12:59:02;;;;;;;;;;;12.10;89.30;;;;;;5034564;28;19928;-78
2022/12/24 13:01:49;;;;;;;;;;;12.10;89.30;;;;;;5036058;28;19925;-76
2022/12/24 13:04:15;;;;;;;;;;;12.10;89.20;;;;;;5022633;28;19921;-77
2022/12/24 13:06:43;;;;;;;;;;;12.10;89.30;;;;;;5034156;28;19959;-78
2022/12/24 13:09:15;;;;;;;;;;;12.10;89.30;;;;;;5032183;28;19921;-77
2022/12/24 13:11:45;;;;;;;;;;;12.10;89.30;;;;;;5035080;28;19978;-78
2022/12/24 13:14:15;;;;;;;;;;;12.10;89.30;;;;;;5018973;28;20394;-76
2022/12/24 13:16:41;;;;;;;;;;;12.10;89.20;;;;;;5033794;28;19921;-78
2022/12/24 13:19:15;;;;;;;;;;;12.00;89.20;;;;;;5036352;28;19924;-78
2022/12/24 13:21:41;;;;;;;;;;;12.00;89.20;;;;;;5030931;28;19935;-78
2022/12/24 13:24:14;;;;;;;;;;;12.00;89.20;;;;;;5033564;28;20628;-79
2022/12/24 13:26:39;;;;;;;;;;;11.90;89.20;;;;;;5049182;28;20367;-77
2022/12/24 13:29:23;;;;;;;;;;;11.90;89.30;;;;;;5037776;28;19974;-79
2022/12/24 13:31:49;;;;;;;;;;;11.90;89.30;;;;;;5031738;28;19968;-79
2022/12/24 13:34:47;;;;;;;;;;;11.90;89.30;;;;;;5021993;28;20004;-79
2022/12/24 13:37:31;;;;;;;;;;;11.80;89.40;;;;;;4998381;28;20426;-79
2022/12/24 13:39:59;;;;;;;;;;;11.80;89.30;;;;;;5036505;28;20648;-73
2022/12/24 13:42:43;;;;;;;;;;;11.80;89.40;;;;;;5036988;28;19925;-79
2022/12/24 13:45:27;;;;;;;;;;;11.80;89.40;;;;;;5036065;28;20090;-77
2022/12/24 13:47:53;;;;;;;;;;;11.70;89.40;;;;;;5036675;28;19923;-78
2022/12/24 13:50:21;;;;;;;;;;;11.70;89.40;;;;;;5049661;28;19924;-78
2022/12/24 13:52:50;;;;;;;;;;;11.70;89.50;;;;;;5048931;28;21159;-77
2022/12/24 13:55:16;;;;;;;;;;;11.70;89.50;;;;;;5049203;28;19925;-78
2022/12/24 13:57:57;;;;;;;;;;;11.70;89.60;;;;;;5035154;28;20516;-78
2022/12/24 14:00:30;;;;;;;;;;;11.70;89.60;;;;;;5048705;28;19921;-78
2022/12/24 14:03:06;;;;;;;;;;;11.70;89.60;;;;;;5016551;28;20426;-78
2022/12/24 14:05:33;;;;;;;;;;;11.80;89.60;;;;;;5030885;28;20127;-78
2022/12/24 14:07:59;;;;;;;;;;;11.80;89.60;;;;;;5015160;28;19921;-78
2022/12/24 14:10:26;;;;;;;;;;;11.80;89.60;;;;;;5032936;28;19932;-78
2022/12/24 14:12:51;;;;;;;;;;;11.80;89.70;;;;;;5016202;28;19925;-77
2022/12/24 14:15:35;;;;;;;;;;;11.80;89.60;;;;;;5026791;28;19927;-77
2022/12/24 14:18:01;;;;;;;;;;;11.80;89.60;;;;;;5030148;28;19921;-76
2022/12/24 14:20:26;;;;;;;;;;;11.80;89.60;;;;;;5031336;28;19920;-76
2022/12/24 14:22:52;;;;;;;;;;;11.70;89.50;;;;;;5034599;28;19991;-77
2022/12/24 14:25:18;;;;;;;;;;;11.70;89.60;;;;;;5032452;28;19983;-78
2022/12/24 14:27:45;;;;;;;;;;;11.60;89.50;;;;;;5031082;28;19920;-77
2022/12/24 14:30:13;;;;;;;;;;;11.60;89.60;;;;;;5032990;28;19924;-77